sensor_id;sensor_type;location;lat;lon;timestamp;temperature;humidity
54540;SHT30;40438;52.992;18.604;2024-03-17T00:00:02;5.67;79.02
54540;SHT30;40438;52.992;18.604;2024-03-17T00:02:30;5.70;79.00
54540;SHT30;40438;52.992;18.604;2024-03-17T00:04:57;5.65;78.73
54540;SHT30;40438;52.992;18.604;2024-03-17T00:07:23;5.57;78.62
54540;SHT30;40438;52.992;18.604;2024-03-17T00:09:48;5.53;78.45
54540;SHT30;40438;52.992;18.604;2024-03-17T00:12:14;5.49;78.13
54540;SHT30;40438;52.992;18.604;2024-03-17T00:14:40;5.46;77.54
54540;SHT30;40438;52.992;18.604;2024-03-17T00:17:06;5.42;76.42
54540;SHT30;40438;52.992;18.604;2024-03-17T00:19:32;5.40;76.11
54540;SHT30;40438;52.992;18.604;2024-03-17T00:21:59;5.40;76.02
54540;SHT30;40438;52.992;18.604;2024-03-17T00:24:25;5.43;75.66
54540;SHT30;40438;52.992;18.604;2024-03-17T00:26:50;5.44;75.16
54540;SHT30;40438;52.992;18.604;2024-03-17T00:29:16;5.37;74.60
54540;SHT30;40438;52.992;18.604;2024-03-17T00:31:42;5.33;74.22
54540;SHT30;40438;52.992;18.604;2024-03-17T00:34:08;5.33;73.88
54540;SHT30;40438;52.992;18.604;2024-03-17T00:36:34;5.36;73.90
54540;SHT30;40438;52.992;18.604;2024-03-17T00:39:01;5.32;72.70
54540;SHT30;40438;52.992;18.604;2024-03-17T00:41:27;5.26;72.49
54540;SHT30;40438;52.992;18.604;2024-03-17T00:43:53;5.28;71.31
54540;SHT30;40438;52.992;18.604;2024-03-17T00:46:20;5.23;71.27
54540;SHT30;40438;52.992;18.604;2024-03-17T00:48:47;5.19;71.47
54540;SHT30;40438;52.992;18.604;2024-03-17T00:51:13;5.18;71.48
54540;SHT30;40438;52.992;18.604;2024-03-17T00:53:39;5.12;71.23
54540;SHT30;40438;52.992;18.604;2024-03-17T00:56:06;5.12;71.26
54540;SHT30;40438;52.992;18.604;2024-03-17T00:58:32;5.01;71.45
54540;SHT30;40438;52.992;18.604;2024-03-17T01:00:58;5.04;71.67
54540;SHT30;40438;52.992;18.604;2024-03-17T01:03:24;4.98;71.93
54540;SHT30;40438;52.992;18.604;2024-03-17T01:05:49;4.99;72.10
54540;SHT30;40438;52.992;18.604;2024-03-17T01:08:15;5.02;71.99
54540;SHT30;40438;52.992;18.604;2024-03-17T01:10:41;5.04;71.94
54540;SHT30;40438;52.992;18.604;2024-03-17T01:13:09;5.01;72.19
54540;SHT30;40438;52.992;18.604;2024-03-17T01:15:35;5.05;71.69
54540;SHT30;40438;52.992;18.604;2024-03-17T01:18:01;5.12;70.85
54540;SHT30;40438;52.992;18.604;2024-03-17T01:20:27;5.11;71.07
54540;SHT30;40438;52.992;18.604;2024-03-17T01:22:52;5.12;70.74
54540;SHT30;40438;52.992;18.604;2024-03-17T01:25:18;5.11;70.87
54540;SHT30;40438;52.992;18.604;2024-03-17T01:27:44;5.13;70.77
54540;SHT30;40438;52.992;18.604;2024-03-17T01:30:12;5.15;70.81
54540;SHT30;40438;52.992;18.604;2024-03-17T01:32:38;5.16;70.62
54540;SHT30;40438;52.992;18.604;2024-03-17T01:35:04;5.18;70.34
54540;SHT30;40438;52.992;18.604;2024-03-17T01:37:30;5.19;70.34
54540;SHT30;40438;52.992;18.604;2024-03-17T01:39:56;5.22;69.86
54540;SHT30;40438;52.992;18.604;2024-03-17T01:42:22;5.22;69.56
54540;SHT30;40438;52.992;18.604;2024-03-17T01:44:48;5.26;68.75
54540;SHT30;40438;52.992;18.604;2024-03-17T01:47:15;5.30;68.33
54540;SHT30;40438;52.992;18.604;2024-03-17T01:49:41;5.36;68.37
54540;SHT30;40438;52.992;18.604;2024-03-17T01:52:07;5.37;67.99
54540;SHT30;40438;52.992;18.604;2024-03-17T01:54:33;5.43;67.77
54540;SHT30;40438;52.992;18.604;2024-03-17T01:56:59;5.44;67.77
54540;SHT30;40438;52.992;18.604;2024-03-17T01:59:24;5.46;67.95
54540;SHT30;40438;52.992;18.604;2024-03-17T02:01:50;5.42;68.20
54540;SHT30;40438;52.992;18.604;2024-03-17T02:04:17;5.42;68.51
54540;SHT30;40438;52.992;18.604;2024-03-17T02:06:43;5.46;68.62
54540;SHT30;40438;52.992;18.604;2024-03-17T02:09:09;5.47;68.66
54540;SHT30;40438;52.992;18.604;2024-03-17T02:11:35;5.50;68.78
54540;SHT30;40438;52.992;18.604;2024-03-17T02:14:01;5.46;69.11
54540;SHT30;40438;52.992;18.604;2024-03-17T02:16:26;5.46;69.40
54540;SHT30;40438;52.992;18.604;2024-03-17T02:18:54;5.51;69.64
54540;SHT30;40438;52.992;18.604;2024-03-17T02:21:22;5.56;70.13
54540;SHT30;40438;52.992;18.604;2024-03-17T02:23:49;5.51;71.39
54540;SHT30;40438;52.992;18.604;2024-03-17T02:26:15;5.49;72.57
54540;SHT30;40438;52.992;18.604;2024-03-17T02:28:41;5.49;73.30
54540;SHT30;40438;52.992;18.604;2024-03-17T02:31:08;5.50;73.62
54540;SHT30;40438;52.992;18.604;2024-03-17T02:33:34;5.44;73.86
54540;SHT30;40438;52.992;18.604;2024-03-17T02:36:01;5.40;74.38
54540;SHT30;40438;52.992;18.604;2024-03-17T02:38:26;5.39;74.51
54540;SHT30;40438;52.992;18.604;2024-03-17T02:40:54;5.39;74.33
54540;SHT30;40438;52.992;18.604;2024-03-17T02:43:19;5.39;74.56
54540;SHT30;40438;52.992;18.604;2024-03-17T02:45:45;5.40;74.48
54540;SHT30;40438;52.992;18.604;2024-03-17T02:48:11;5.36;74.29
54540;SHT30;40438;52.992;18.604;2024-03-17T02:50:37;5.37;74.13
54540;SHT30;40438;52.992;18.604;2024-03-17T02:53:03;5.39;73.82
54540;SHT30;40438;52.992;18.604;2024-03-17T02:55:28;5.35;73.87
54540;SHT30;40438;52.992;18.604;2024-03-17T02:57:56;5.37;73.81
54540;SHT30;40438;52.992;18.604;2024-03-17T03:00:21;5.37;73.66
54540;SHT30;40438;52.992;18.604;2024-03-17T03:02:47;5.42;72.74
54540;SHT30;40438;52.992;18.604;2024-03-17T03:05:13;5.40;72.06
54540;SHT30;40438;52.992;18.604;2024-03-17T03:07:39;5.49;72.20
54540;SHT30;40438;52.992;18.604;2024-03-17T03:10:05;5.49;71.47
54540;SHT30;40438;52.992;18.604;2024-03-17T03:12:31;5.55;71.07
54540;SHT30;40438;52.992;18.604;2024-03-17T03:14:58;5.55;70.82
54540;SHT30;40438;52.992;18.604;2024-03-17T03:17:24;5.57;70.67
54540;SHT30;40438;52.992;18.604;2024-03-17T03:19:50;5.57;70.48
54540;SHT30;40438;52.992;18.604;2024-03-17T03:22:15;5.53;70.47
54540;SHT30;40438;52.992;18.604;2024-03-17T03:24:41;5.56;70.39
54540;SHT30;40438;52.992;18.604;2024-03-17T03:27:07;5.51;70.14
54540;SHT30;40438;52.992;18.604;2024-03-17T03:29:33;5.55;70.03
54540;SHT30;40438;52.992;18.604;2024-03-17T03:32:00;5.51;70.20
54540;SHT30;40438;52.992;18.604;2024-03-17T03:34:26;5.49;69.98
54540;SHT30;40438;52.992;18.604;2024-03-17T03:36:52;5.43;69.66
54540;SHT30;40438;52.992;18.604;2024-03-17T03:39:17;5.47;69.65
54540;SHT30;40438;52.992;18.604;2024-03-17T03:41:43;5.40;69.84
54540;SHT30;40438;52.992;18.604;2024-03-17T03:44:09;5.36;69.83
54540;SHT30;40438;52.992;18.604;2024-03-17T03:46:34;5.40;69.88
54540;SHT30;40438;52.992;18.604;2024-03-17T03:49:02;5.40;69.79
54540;SHT30;40438;52.992;18.604;2024-03-17T03:51:27;5.42;69.89
54540;SHT30;40438;52.992;18.604;2024-03-17T03:53:53;5.43;69.86
54540;SHT30;40438;52.992;18.604;2024-03-17T03:56:19;5.37;70.17
54540;SHT30;40438;52.992;18.604;2024-03-17T03:58:45;5.33;70.43
54540;SHT30;40438;52.992;18.604;2024-03-17T04:01:10;5.36;70.66
54540;SHT30;40438;52.992;18.604;2024-03-17T04:03:36;5.36;70.62
54540;SHT30;40438;52.992;18.604;2024-03-17T04:06:08;5.40;70.91
54540;SHT30;40438;52.992;18.604;2024-03-17T04:08:35;5.39;70.81
54540;SHT30;40438;52.992;18.604;2024-03-17T04:11:01;5.42;70.68
54540;SHT30;40438;52.992;18.604;2024-03-17T04:13:26;5.44;70.74
54540;SHT30;40438;52.992;18.604;2024-03-17T04:15:52;5.43;70.82
54540;SHT30;40438;52.992;18.604;2024-03-17T04:18:18;5.44;70.76
54540;SHT30;40438;52.992;18.604;2024-03-17T04:20:44;5.37;70.84
54540;SHT30;40438;52.992;18.604;2024-03-17T04:23:11;5.42;70.84
54540;SHT30;40438;52.992;18.604;2024-03-17T04:25:37;5.44;71.16
54540;SHT30;40438;52.992;18.604;2024-03-17T04:28:03;5.40;70.94
54540;SHT30;40438;52.992;18.604;2024-03-17T04:30:28;5.44;71.08
54540;SHT30;40438;52.992;18.604;2024-03-17T04:32:54;5.37;71.05
54540;SHT30;40438;52.992;18.604;2024-03-17T04:35:20;5.43;71.11
54540;SHT30;40438;52.992;18.604;2024-03-17T04:37:46;5.40;71.17
54540;SHT30;40438;52.992;18.604;2024-03-17T04:40:13;5.37;71.19
54540;SHT30;40438;52.992;18.604;2024-03-17T04:42:38;5.40;71.24
54540;SHT30;40438;52.992;18.604;2024-03-17T04:45:06;5.42;71.40
54540;SHT30;40438;52.992;18.604;2024-03-17T04:47:32;5.39;71.19
54540;SHT30;40438;52.992;18.604;2024-03-17T04:49:58;5.42;71.18
54540;SHT30;40438;52.992;18.604;2024-03-17T04:52:24;5.40;70.96
54540;SHT30;40438;52.992;18.604;2024-03-17T04:54:50;5.42;71.04
54540;SHT30;40438;52.992;18.604;2024-03-17T04:57:17;5.43;71.08
54540;SHT30;40438;52.992;18.604;2024-03-17T04:59:43;5.43;71.07
54540;SHT30;40438;52.992;18.604;2024-03-17T05:02:08;5.47;71.43
54540;SHT30;40438;52.992;18.604;2024-03-17T05:04:34;5.50;72.39
54540;SHT30;40438;52.992;18.604;2024-03-17T05:07:00;5.51;75.52
54540;SHT30;40438;52.992;18.604;2024-03-17T05:09:26;5.51;77.21
54540;SHT30;40438;52.992;18.604;2024-03-17T05:11:51;5.43;77.88
54540;SHT30;40438;52.992;18.604;2024-03-17T05:14:19;5.30;78.33
54540;SHT30;40438;52.992;18.604;2024-03-17T05:16:45;5.23;78.16
54540;SHT30;40438;52.992;18.604;2024-03-17T05:19:10;5.22;78.31
54540;SHT30;40438;52.992;18.604;2024-03-17T05:21:36;5.19;78.14
54540;SHT30;40438;52.992;18.604;2024-03-17T05:24:02;5.15;77.85
54540;SHT30;40438;52.992;18.604;2024-03-17T05:26:28;5.12;78.30
54540;SHT30;40438;52.992;18.604;2024-03-17T05:28:54;5.11;77.46
54540;SHT30;40438;52.992;18.604;2024-03-17T05:31:21;5.07;77.69
54540;SHT30;40438;52.992;18.604;2024-03-17T05:33:47;5.07;77.71
54540;SHT30;40438;52.992;18.604;2024-03-17T05:36:13;4.97;78.26
54540;SHT30;40438;52.992;18.604;2024-03-17T05:38:39;5.02;78.51
54540;SHT30;40438;52.992;18.604;2024-03-17T05:41:07;4.97;78.50
54540;SHT30;40438;52.992;18.604;2024-03-17T05:43:34;5.02;78.28
54540;SHT30;40438;52.992;18.604;2024-03-17T05:46:00;4.97;78.45
54540;SHT30;40438;52.992;18.604;2024-03-17T05:48:28;5.02;78.34
54540;SHT30;40438;52.992;18.604;2024-03-17T05:50:54;5.04;78.46
54540;SHT30;40438;52.992;18.604;2024-03-17T05:53:21;4.95;78.23
54540;SHT30;40438;52.992;18.604;2024-03-17T05:55:47;4.95;78.35
54540;SHT30;40438;52.992;18.604;2024-03-17T05:58:13;5.01;78.16
54540;SHT30;40438;52.992;18.604;2024-03-17T06:00:39;4.98;77.43
54540;SHT30;40438;52.992;18.604;2024-03-17T06:03:05;5.01;77.12
54540;SHT30;40438;52.992;18.604;2024-03-17T06:05:33;5.05;77.48
54540;SHT30;40438;52.992;18.604;2024-03-17T06:07:59;5.05;76.83
54540;SHT30;40438;52.992;18.604;2024-03-17T06:10:25;5.05;75.77
54540;SHT30;40438;52.992;18.604;2024-03-17T06:12:51;5.11;75.71
54540;SHT30;40438;52.992;18.604;2024-03-17T06:15:17;5.13;75.43
54540;SHT30;40438;52.992;18.604;2024-03-17T06:17:42;5.11;75.46
54540;SHT30;40438;52.992;18.604;2024-03-17T06:20:09;5.15;74.74
54540;SHT30;40438;52.992;18.604;2024-03-17T06:22:36;5.13;74.97
54540;SHT30;40438;52.992;18.604;2024-03-17T06:25:02;5.20;74.60
54540;SHT30;40438;52.992;18.604;2024-03-17T06:27:28;5.29;74.83
54540;SHT30;40438;52.992;18.604;2024-03-17T06:29:54;5.33;73.59
54540;SHT30;40438;52.992;18.604;2024-03-17T06:32:20;5.33;72.50
54540;SHT30;40438;52.992;18.604;2024-03-17T06:34:45;5.35;71.69
54540;SHT30;40438;52.992;18.604;2024-03-17T06:37:11;5.39;70.78
54540;SHT30;40438;52.992;18.604;2024-03-17T06:39:38;5.42;69.52
54540;SHT30;40438;52.992;18.604;2024-03-17T06:42:05;5.37;69.58
54540;SHT30;40438;52.992;18.604;2024-03-17T06:44:30;5.37;69.29
54540;SHT30;40438;52.992;18.604;2024-03-17T06:46:56;5.32;69.31
54540;SHT30;40438;52.992;18.604;2024-03-17T06:49:22;5.35;69.78
54540;SHT30;40438;52.992;18.604;2024-03-17T06:51:47;5.37;69.26
54540;SHT30;40438;52.992;18.604;2024-03-17T06:54:13;5.39;68.79
54540;SHT30;40438;52.992;18.604;2024-03-17T06:56:40;5.39;68.94
54540;SHT30;40438;52.992;18.604;2024-03-17T06:59:06;5.42;68.92
54540;SHT30;40438;52.992;18.604;2024-03-17T07:01:32;5.39;68.54
54540;SHT30;40438;52.992;18.604;2024-03-17T07:03:59;5.39;68.64
54540;SHT30;40438;52.992;18.604;2024-03-17T07:06:24;5.46;68.47
54540;SHT30;40438;52.992;18.604;2024-03-17T07:08:50;5.51;68.05
54540;SHT30;40438;52.992;18.604;2024-03-17T07:11:16;5.46;67.19
54540;SHT30;40438;52.992;18.604;2024-03-17T07:13:43;5.43;66.71
54540;SHT30;40438;52.992;18.604;2024-03-17T07:16:09;5.44;67.02
54540;SHT30;40438;52.992;18.604;2024-03-17T07:18:35;5.42;66.71
54540;SHT30;40438;52.992;18.604;2024-03-17T07:21:02;5.49;66.53
54540;SHT30;40438;52.992;18.604;2024-03-17T07:23:28;5.47;66.42
54540;SHT30;40438;52.992;18.604;2024-03-17T07:25:54;5.50;66.72
54540;SHT30;40438;52.992;18.604;2024-03-17T07:28:20;5.55;66.60
54540;SHT30;40438;52.992;18.604;2024-03-17T07:30:48;5.56;66.55
54540;SHT30;40438;52.992;18.604;2024-03-17T07:33:14;5.56;66.99
54540;SHT30;40438;52.992;18.604;2024-03-17T07:35:47;5.63;67.17
54540;SHT30;40438;52.992;18.604;2024-03-17T07:38:12;5.60;67.54
54540;SHT30;40438;52.992;18.604;2024-03-17T07:40:38;5.60;67.40
54540;SHT30;40438;52.992;18.604;2024-03-17T07:43:04;5.59;67.37
54540;SHT30;40438;52.992;18.604;2024-03-17T07:45:30;5.62;68.06
54540;SHT30;40438;52.992;18.604;2024-03-17T07:47:57;5.62;68.08
54540;SHT30;40438;52.992;18.604;2024-03-17T07:50:23;5.59;68.25
54540;SHT30;40438;52.992;18.604;2024-03-17T07:52:48;5.55;68.19
54540;SHT30;40438;52.992;18.604;2024-03-17T07:55:14;5.53;68.38
54540;SHT30;40438;52.992;18.604;2024-03-17T07:57:40;5.50;68.92
54540;SHT30;40438;52.992;18.604;2024-03-17T08:00:07;5.55;69.52
54540;SHT30;40438;52.992;18.604;2024-03-17T08:02:33;5.59;69.35
54540;SHT30;40438;52.992;18.604;2024-03-17T08:05:00;5.59;69.44
54540;SHT30;40438;52.992;18.604;2024-03-17T08:07:26;5.62;69.62
54540;SHT30;40438;52.992;18.604;2024-03-17T08:09:52;5.70;69.52
54540;SHT30;40438;52.992;18.604;2024-03-17T08:12:18;5.69;69.22
54540;SHT30;40438;52.992;18.604;2024-03-17T08:14:43;5.71;69.59
54540;SHT30;40438;52.992;18.604;2024-03-17T08:17:10;5.70;69.69
54540;SHT30;40438;52.992;18.604;2024-03-17T08:19:36;5.88;69.56
54540;SHT30;40438;52.992;18.604;2024-03-17T08:22:04;6.18;68.29
54540;SHT30;40438;52.992;18.604;2024-03-17T08:24:29;6.77;66.88
54540;SHT30;40438;52.992;18.604;2024-03-17T08:26:55;6.72;66.92
54540;SHT30;40438;52.992;18.604;2024-03-17T08:29:21;7.25;65.04
54540;SHT30;40438;52.992;18.604;2024-03-17T08:31:47;7.12;65.54
54540;SHT30;40438;52.992;18.604;2024-03-17T08:34:12;7.09;65.84
54540;SHT30;40438;52.992;18.604;2024-03-17T08:36:39;7.26;65.20
54540;SHT30;40438;52.992;18.604;2024-03-17T08:39:06;7.31;65.09
54540;SHT30;40438;52.992;18.604;2024-03-17T08:41:32;7.08;64.71
54540;SHT30;40438;52.992;18.604;2024-03-17T08:43:58;7.11;65.21
54540;SHT30;40438;52.992;18.604;2024-03-17T08:46:23;6.98;65.87
54540;SHT30;40438;52.992;18.604;2024-03-17T08:48:49;7.00;65.88
54540;SHT30;40438;52.992;18.604;2024-03-17T08:51:15;6.80;66.48
54540;SHT30;40438;52.992;18.604;2024-03-17T08:53:41;7.03;66.74
54540;SHT30;40438;52.992;18.604;2024-03-17T08:56:08;7.21;66.02
54540;SHT30;40438;52.992;18.604;2024-03-17T08:58:33;6.93;68.74
54540;SHT30;40438;52.992;18.604;2024-03-17T09:01:06;6.60;72.09
54540;SHT30;40438;52.992;18.604;2024-03-17T09:03:32;6.15;74.83
54540;SHT30;40438;52.992;18.604;2024-03-17T09:05:57;5.97;76.02
54540;SHT30;40438;52.992;18.604;2024-03-17T09:08:24;5.78;76.15
54540;SHT30;40438;52.992;18.604;2024-03-17T09:10:51;5.66;76.81
54540;SHT30;40438;52.992;18.604;2024-03-17T09:13:20;5.55;76.43
54540;SHT30;40438;52.992;18.604;2024-03-17T09:15:53;5.43;77.27
54540;SHT30;40438;52.992;18.604;2024-03-17T09:18:19;5.29;77.92
54540;SHT30;40438;52.992;18.604;2024-03-17T09:20:45;5.08;78.70
54540;SHT30;40438;52.992;18.604;2024-03-17T09:23:11;5.16;79.32
54540;SHT30;40438;52.992;18.604;2024-03-17T09:25:37;5.32;78.34
54540;SHT30;40438;52.992;18.604;2024-03-17T09:28:03;6.01;75.88
54540;SHT30;40438;52.992;18.604;2024-03-17T09:30:30;6.26;74.27
54540;SHT30;40438;52.992;18.604;2024-03-17T09:32:56;6.69;71.78
54540;SHT30;40438;52.992;18.604;2024-03-17T09:35:21;6.93;71.58
54540;SHT30;40438;52.992;18.604;2024-03-17T09:37:47;7.08;71.77
54540;SHT30;40438;52.992;18.604;2024-03-17T09:40:14;7.26;70.34
54540;SHT30;40438;52.992;18.604;2024-03-17T09:42:40;7.90;68.89
54540;SHT30;40438;52.992;18.604;2024-03-17T09:45:07;7.96;68.48
54540;SHT30;40438;52.992;18.604;2024-03-17T09:47:36;7.77;68.03
54540;SHT30;40438;52.992;18.604;2024-03-17T09:50:02;7.49;68.65
54540;SHT30;40438;52.992;18.604;2024-03-17T09:52:29;7.36;69.53
54540;SHT30;40438;52.992;18.604;2024-03-17T09:54:59;7.11;68.84
54540;SHT30;40438;52.992;18.604;2024-03-17T09:57:25;6.90;69.38
54540;SHT30;40438;52.992;18.604;2024-03-17T09:59:52;6.86;69.99
54540;SHT30;40438;52.992;18.604;2024-03-17T10:02:17;7.11;68.99
54540;SHT30;40438;52.992;18.604;2024-03-17T10:04:45;7.36;67.99
54540;SHT30;40438;52.992;18.604;2024-03-17T10:07:11;7.52;66.50
54540;SHT30;40438;52.992;18.604;2024-03-17T10:09:36;7.60;65.98
54540;SHT30;40438;52.992;18.604;2024-03-17T10:12:03;7.50;64.95
54540;SHT30;40438;52.992;18.604;2024-03-17T10:14:28;7.52;64.95
54540;SHT30;40438;52.992;18.604;2024-03-17T10:16:54;7.45;65.48
54540;SHT30;40438;52.992;18.604;2024-03-17T10:19:22;7.40;65.21
54540;SHT30;40438;52.992;18.604;2024-03-17T10:21:50;7.53;65.19
54540;SHT30;40438;52.992;18.604;2024-03-17T10:24:20;7.39;62.75
54540;SHT30;40438;52.992;18.604;2024-03-17T10:26:47;7.40;62.32
54540;SHT30;40438;52.992;18.604;2024-03-17T10:29:20;7.40;62.24
54540;SHT30;40438;52.992;18.604;2024-03-17T10:31:45;7.29;59.80
54540;SHT30;40438;52.992;18.604;2024-03-17T10:34:15;7.14;59.27
54540;SHT30;40438;52.992;18.604;2024-03-17T10:36:41;6.97;59.83
54540;SHT30;40438;52.992;18.604;2024-03-17T10:39:22;7.00;61.09
54540;SHT30;40438;52.992;18.604;2024-03-17T10:41:48;6.98;62.97
54540;SHT30;40438;52.992;18.604;2024-03-17T10:44:14;6.98;64.22
54540;SHT30;40438;52.992;18.604;2024-03-17T10:46:40;6.91;64.72
54540;SHT30;40438;52.992;18.604;2024-03-17T10:49:09;6.77;64.19
54540;SHT30;40438;52.992;18.604;2024-03-17T10:51:38;6.77;65.16
54540;SHT30;40438;52.992;18.604;2024-03-17T10:54:04;6.70;67.67
54540;SHT30;40438;52.992;18.604;2024-03-17T10:56:32;6.69;65.01
54540;SHT30;40438;52.992;18.604;2024-03-17T10:58:59;6.76;63.75
54540;SHT30;40438;52.992;18.604;2024-03-17T11:01:27;6.97;63.94
54540;SHT30;40438;52.992;18.604;2024-03-17T11:03:54;7.31;61.67
54540;SHT30;40438;52.992;18.604;2024-03-17T11:06:20;7.71;57.87
54540;SHT30;40438;52.992;18.604;2024-03-17T11:08:45;7.85;56.27
54540;SHT30;40438;52.992;18.604;2024-03-17T11:11:11;7.79;56.18
54540;SHT30;40438;52.992;18.604;2024-03-17T11:13:38;7.69;55.14
54540;SHT30;40438;52.992;18.604;2024-03-17T11:16:04;7.52;60.32
54540;SHT30;40438;52.992;18.604;2024-03-17T11:18:50;7.29;63.70
54540;SHT30;40438;52.992;18.604;2024-03-17T11:21:20;6.96;64.24
54540;SHT30;40438;52.992;18.604;2024-03-17T11:24:00;6.70;65.39
54540;SHT30;40438;52.992;18.604;2024-03-17T11:26:27;6.50;66.63
54540;SHT30;40438;52.992;18.604;2024-03-17T11:28:54;6.22;66.90
54540;SHT30;40438;52.992;18.604;2024-03-17T11:31:40;6.17;67.20
54540;SHT30;40438;52.992;18.604;2024-03-17T11:34:07;6.08;67.88
54540;SHT30;40438;52.992;18.604;2024-03-17T11:36:50;5.97;67.99
54540;SHT30;40438;52.992;18.604;2024-03-17T11:39:16;5.94;68.15
54540;SHT30;40438;52.992;18.604;2024-03-17T11:41:44;5.88;68.29
54540;SHT30;40438;52.992;18.604;2024-03-17T11:44:15;5.87;68.07
54540;SHT30;40438;52.992;18.604;2024-03-17T11:46:41;5.83;67.19
54540;SHT30;40438;52.992;18.604;2024-03-17T11:49:07;5.83;66.93
54540;SHT30;40438;52.992;18.604;2024-03-17T11:51:34;5.80;67.08
54540;SHT30;40438;52.992;18.604;2024-03-17T11:54:00;5.83;66.83
54540;SHT30;40438;52.992;18.604;2024-03-17T11:56:26;5.90;67.26
54540;SHT30;40438;52.992;18.604;2024-03-17T11:59:04;5.97;67.06
54540;SHT30;40438;52.992;18.604;2024-03-17T12:01:31;6.01;66.60
54540;SHT30;40438;52.992;18.604;2024-03-17T12:03:58;6.05;66.33
54540;SHT30;40438;52.992;18.604;2024-03-17T12:06:24;6.07;65.53
54540;SHT30;40438;52.992;18.604;2024-03-17T12:08:49;5.98;65.27
54540;SHT30;40438;52.992;18.604;2024-03-17T12:11:17;5.99;65.17
54540;SHT30;40438;52.992;18.604;2024-03-17T12:13:43;6.01;65.89
54540;SHT30;40438;52.992;18.604;2024-03-17T12:16:12;6.01;66.15
54540;SHT30;40438;52.992;18.604;2024-03-17T12:18:39;5.98;66.50
54540;SHT30;40438;52.992;18.604;2024-03-17T12:21:05;5.93;66.50
54540;SHT30;40438;52.992;18.604;2024-03-17T12:23:31;5.87;65.55
54540;SHT30;40438;52.992;18.604;2024-03-17T12:25:57;5.90;65.63
54540;SHT30;40438;52.992;18.604;2024-03-17T12:28:23;5.94;65.63
54540;SHT30;40438;52.992;18.604;2024-03-17T12:30:49;5.90;65.44
54540;SHT30;40438;52.992;18.604;2024-03-17T12:33:15;5.78;65.07
54540;SHT30;40438;52.992;18.604;2024-03-17T12:35:42;5.67;65.23
54540;SHT30;40438;52.992;18.604;2024-03-17T12:38:20;5.55;65.93
54540;SHT30;40438;52.992;18.604;2024-03-17T12:40:46;5.51;66.25
54540;SHT30;40438;52.992;18.604;2024-03-17T12:43:12;5.49;66.02
54540;SHT30;40438;52.992;18.604;2024-03-17T12:45:38;5.46;66.07
54540;SHT30;40438;52.992;18.604;2024-03-17T12:48:12;5.42;66.33
54540;SHT30;40438;52.992;18.604;2024-03-17T12:50:45;5.39;65.22
54540;SHT30;40438;52.992;18.604;2024-03-17T12:53:16;5.43;65.81
54540;SHT30;40438;52.992;18.604;2024-03-17T12:55:41;5.51;66.19
54540;SHT30;40438;52.992;18.604;2024-03-17T12:58:08;5.46;65.92
54540;SHT30;40438;52.992;18.604;2024-03-17T13:00:34;5.43;64.44
54540;SHT30;40438;52.992;18.604;2024-03-17T13:03:01;5.43;64.30
54540;SHT30;40438;52.992;18.604;2024-03-17T13:05:27;5.30;65.07
54540;SHT30;40438;52.992;18.604;2024-03-17T13:07:55;5.29;64.72
54540;SHT30;40438;52.992;18.604;2024-03-17T13:10:21;5.28;64.66
54540;SHT30;40438;52.992;18.604;2024-03-17T13:12:47;5.33;64.89
54540;SHT30;40438;52.992;18.604;2024-03-17T13:15:14;5.33;64.78
54540;SHT30;40438;52.992;18.604;2024-03-17T13:17:40;5.35;64.78
54540;SHT30;40438;52.992;18.604;2024-03-17T13:20:10;5.32;64.64
54540;SHT30;40438;52.992;18.604;2024-03-17T13:22:38;5.35;64.87
54540;SHT30;40438;52.992;18.604;2024-03-17T13:25:07;5.40;65.10
54540;SHT30;40438;52.992;18.604;2024-03-17T13:27:34;5.43;64.57
54540;SHT30;40438;52.992;18.604;2024-03-17T13:29:59;5.50;63.91
54540;SHT30;40438;52.992;18.604;2024-03-17T13:32:25;5.59;64.03
54540;SHT30;40438;52.992;18.604;2024-03-17T13:34:51;5.66;64.45
54540;SHT30;40438;52.992;18.604;2024-03-17T13:37:17;5.69;63.82
54540;SHT30;40438;52.992;18.604;2024-03-17T13:39:42;5.47;63.15
54540;SHT30;40438;52.992;18.604;2024-03-17T13:42:10;5.37;63.35
54540;SHT30;40438;52.992;18.604;2024-03-17T13:44:35;5.28;63.76
54540;SHT30;40438;52.992;18.604;2024-03-17T13:47:01;5.07;63.90
54540;SHT30;40438;52.992;18.604;2024-03-17T13:49:27;5.01;64.73
54540;SHT30;40438;52.992;18.604;2024-03-17T13:51:53;4.88;65.44
54540;SHT30;40438;52.992;18.604;2024-03-17T13:54:19;4.80;66.29
54540;SHT30;40438;52.992;18.604;2024-03-17T13:56:46;4.73;67.10
54540;SHT30;40438;52.992;18.604;2024-03-17T13:59:14;4.54;68.29
54540;SHT30;40438;52.992;18.604;2024-03-17T14:01:39;4.57;68.58
54540;SHT30;40438;52.992;18.604;2024-03-17T14:04:05;4.46;69.71
54540;SHT30;40438;52.992;18.604;2024-03-17T14:06:31;4.41;70.54
54540;SHT30;40438;52.992;18.604;2024-03-17T14:08:57;4.33;71.36
54540;SHT30;40438;52.992;18.604;2024-03-17T14:11:22;4.39;71.60
54540;SHT30;40438;52.992;18.604;2024-03-17T14:13:48;4.37;71.53
54540;SHT30;40438;52.992;18.604;2024-03-17T14:16:15;4.41;71.02
54540;SHT30;40438;52.992;18.604;2024-03-17T14:18:41;4.46;70.43
54540;SHT30;40438;52.992;18.604;2024-03-17T14:21:07;4.53;69.15
54540;SHT30;40438;52.992;18.604;2024-03-17T14:23:33;4.54;67.98
54540;SHT30;40438;52.992;18.604;2024-03-17T14:25:59;4.60;67.90
54540;SHT30;40438;52.992;18.604;2024-03-17T14:28:24;4.67;67.68
54540;SHT30;40438;52.992;18.604;2024-03-17T14:30:52;4.67;66.22
54540;SHT30;40438;52.992;18.604;2024-03-17T14:33:19;4.70;65.63
54540;SHT30;40438;52.992;18.604;2024-03-17T14:35:45;4.73;65.50
54540;SHT30;40438;52.992;18.604;2024-03-17T14:38:11;4.71;65.68
54540;SHT30;40438;52.992;18.604;2024-03-17T14:40:37;4.78;65.65
54540;SHT30;40438;52.992;18.604;2024-03-17T14:43:03;4.77;65.44
54540;SHT30;40438;52.992;18.604;2024-03-17T14:45:28;4.70;66.02
54540;SHT30;40438;52.992;18.604;2024-03-17T14:47:54;4.66;66.85
54540;SHT30;40438;52.992;18.604;2024-03-17T14:50:21;4.63;67.94
54540;SHT30;40438;52.992;18.604;2024-03-17T14:52:47;4.58;68.80
54540;SHT30;40438;52.992;18.604;2024-03-17T14:55:13;4.50;69.98
54540;SHT30;40438;52.992;18.604;2024-03-17T14:57:39;4.34;70.33
54540;SHT30;40438;52.992;18.604;2024-03-17T15:00:07;4.25;70.50
54540;SHT30;40438;52.992;18.604;2024-03-17T15:02:33;4.22;70.43
54540;SHT30;40438;52.992;18.604;2024-03-17T15:04:59;4.10;72.06
54540;SHT30;40438;52.992;18.604;2024-03-17T15:07:26;4.12;72.02
54540;SHT30;40438;52.992;18.604;2024-03-17T15:09:52;4.01;71.67
54540;SHT30;40438;52.992;18.604;2024-03-17T15:12:17;3.98;72.52
54540;SHT30;40438;52.992;18.604;2024-03-17T15:14:43;3.95;72.95
54540;SHT30;40438;52.992;18.604;2024-03-17T15:17:11;3.91;72.64
54540;SHT30;40438;52.992;18.604;2024-03-17T15:19:37;3.87;72.74
54540;SHT30;40438;52.992;18.604;2024-03-17T15:22:03;3.87;72.91
54540;SHT30;40438;52.992;18.604;2024-03-17T15:24:30;3.88;72.19